sensor_id;sensor_type;location;lat;lon;timestamp;pressure;altitude;pressure_sealevel;temperature;humidity
33189;BME280;52601;53.070;10.600;2023-02-18T00:00:03;101353.84;;;6.11;100.00
33189;BME280;52601;53.070;10.600;2023-02-18T00:02:49;101352.09;;;6.13;100.00
33189;BME280;52601;53.070;10.600;2023-02-18T00:05:37;101361.06;;;5.98;100.00
33189;BME280;52601;53.070;10.600;2023-02-18T00:08:22;101355.59;;;6.10;100.00
33189;BME280;52601;53.070;10.600;2023-02-18T00:11:08;101356.69;;;5.99;100.00
33189;BME280;52601;53.070;10.600;2023-02-18T00:13:56;101369.16;;;5.83;100.00
33189;BME280;52601;53.070;10.600;2023-02-18T00:16:43;101367.34;;;5.88;100.00
33189;BME280;52601;53.070;10.600;2023-02-18T00:19:29;101367.16;;;5.97;100.00
33189;BME280;52601;53.070;10.600;2023-02-18T00:22:15;101369.66;;;6.02;100.00
33189;BME280;52601;53.070;10.600;2023-02-18T00:25:00;101355.19;;;5.87;100.00
33189;BME280;52601;53.070;10.600;2023-02-18T00:27:46;101339.38;;;5.98;100.00
33189;BME280;52601;53.070;10.600;2023-02-18T00:30:31;101352.34;;;5.99;100.00
33189;BME280;52601;53.070;10.600;2023-02-18T00:33:17;101358.47;;;5.97;100.00
33189;BME280;52601;53.070;10.600;2023-02-18T00:36:05;101349.91;;;5.92;100.00
33189;BME280;52601;53.070;10.600;2023-02-18T00:38:54;101356.88;;;5.90;100.00
33189;BME280;52601;53.070;10.600;2023-02-18T00:41:41;101352.41;;;5.98;100.00
33189;BME280;52601;53.070;10.600;2023-02-18T00:44:26;101355.97;;;5.91;100.00
33189;BME280;52601;53.070;10.600;2023-02-18T00:47:12;101357.00;;;5.81;100.00
33189;BME280;52601;53.070;10.600;2023-02-18T00:49:58;101349.13;;;5.88;100.00
33189;BME280;52601;53.070;10.600;2023-02-18T00:52:43;101337.00;;;5.86;100.00
33189;BME280;52601;53.070;10.600;2023-02-18T00:55:29;101349.03;;;5.91;100.00
33189;BME280;52601;53.070;10.600;2023-02-18T00:58:15;101353.56;;;5.80;100.00
33189;BME280;52601;53.070;10.600;2023-02-18T01:01:01;101355.38;;;5.75;100.00
33189;BME280;52601;53.070;10.600;2023-02-18T01:03:46;101349.28;;;5.78;100.00
33189;BME280;52601;53.070;10.600;2023-02-18T01:06:32;101357.19;;;5.72;100.00
33189;BME280;52601;53.070;10.600;2023-02-18T01:09:18;101362.38;;;5.72;100.00
33189;BME280;52601;53.070;10.600;2023-02-18T01:12:03;101363.88;;;5.88;100.00
33189;BME280;52601;53.070;10.600;2023-02-18T01:14:49;101364.72;;;5.88;100.00
33189;BME280;52601;53.070;10.600;2023-02-18T01:17:34;101367.56;;;5.73;100.00
33189;BME280;52601;53.070;10.600;2023-02-18T01:20:20;101368.50;;;5.69;100.00
33189;BME280;52601;53.070;10.600;2023-02-18T01:23:06;101374.53;;;5.71;100.00
33189;BME280;52601;53.070;10.600;2023-02-18T01:25:51;101363.91;;;5.85;100.00
33189;BME280;52601;53.070;10.600;2023-02-18T01:28:38;101369.94;;;5.87;100.00
33189;BME280;52601;53.070;10.600;2023-02-18T01:31:25;101364.09;;;5.73;100.00
33189;BME280;52601;53.070;10.600;2023-02-18T01:34:10;101362.28;;;5.78;100.00
33189;BME280;52601;53.070;10.600;2023-02-18T01:36:56;101371.06;;;5.71;100.00
33189;BME280;52601;53.070;10.600;2023-02-18T01:39:42;101376.09;;;5.81;100.00
33189;BME280;52601;53.070;10.600;2023-02-18T01:42:28;101362.44;;;5.70;100.00
33189;BME280;52601;53.070;10.600;2023-02-18T01:48:21;101353.91;;;5.62;100.00
33189;BME280;52601;53.070;10.600;2023-02-18T01:51:21;101342.56;;;5.65;100.00
33189;BME280;52601;53.070;10.600;2023-02-18T01:54:12;101341.59;;;5.72;100.00
33189;BME280;52601;53.070;10.600;2023-02-18T01:57:07;101344.22;;;5.70;100.00
33189;BME280;52601;53.070;10.600;2023-02-18T01:59:55;101356.19;;;5.79;100.00
33189;BME280;52601;53.070;10.600;2023-02-18T02:02:45;101349.94;;;5.89;100.00
33189;BME280;52601;53.070;10.600;2023-02-18T02:05:32;101358.59;;;5.92;100.00
33189;BME280;52601;53.070;10.600;2023-02-18T02:08:17;101340.13;;;6.03;100.00
33189;BME280;52601;53.070;10.600;2023-02-18T02:11:07;101353.19;;;6.01;100.00
33189;BME280;52601;53.070;10.600;2023-02-18T02:17:07;101353.94;;;6.08;100.00
33189;BME280;52601;53.070;10.600;2023-02-18T02:23:33;101333.13;;;6.06;100.00
33189;BME280;52601;53.070;10.600;2023-02-18T02:26:31;101354.66;;;6.16;100.00
33189;BME280;52601;53.070;10.600;2023-02-18T02:32:49;101342.00;;;5.98;100.00
33189;BME280;52601;53.070;10.600;2023-02-18T02:35:56;101347.06;;;6.04;100.00
33189;BME280;52601;53.070;10.600;2023-02-18T02:38:59;101350.50;;;6.06;100.00
33189;BME280;52601;53.070;10.600;2023-02-18T02:44:57;101349.56;;;6.08;100.00
33189;BME280;52601;53.070;10.600;2023-02-18T02:47:50;101352.63;;;6.30;100.00
33189;BME280;52601;53.070;10.600;2023-02-18T02:50:44;101342.22;;;6.29;100.00
33189;BME280;52601;53.070;10.600;2023-02-18T02:53:33;101350.72;;;6.37;100.00
33189;BME280;52601;53.070;10.600;2023-02-18T02:56:23;101334.72;;;6.55;100.00
33189;BME280;52601;53.070;10.600;2023-02-18T02:59:15;101340.97;;;6.46;100.00
33189;BME280;52601;53.070;10.600;2023-02-18T03:02:24;101336.66;;;6.45;100.00
33189;BME280;52601;53.070;10.600;2023-02-18T03:05:23;101339.19;;;6.48;100.00
33189;BME280;52601;53.070;10.600;2023-02-18T03:08:37;101345.78;;;6.66;100.00
33189;BME280;52601;53.070;10.600;2023-02-18T03:11:28;101318.78;;;6.68;100.00
33189;BME280;52601;53.070;10.600;2023-02-18T03:14:28;101320.38;;;6.75;100.00
33189;BME280;52601;53.070;10.600;2023-02-18T03:23:07;101335.19;;;6.73;100.00
33189;BME280;52601;53.070;10.600;2023-02-18T03:25:55;101330.72;;;6.78;100.00
33189;BME280;52601;53.070;10.600;2023-02-18T03:28:44;101318.69;;;6.73;100.00
33189;BME280;52601;53.070;10.600;2023-02-18T03:31:32;101316.84;;;6.76;100.00
33189;BME280;52601;53.070;10.600;2023-02-18T03:34:25;101314.34;;;6.73;100.00
33189;BME280;52601;53.070;10.600;2023-02-18T03:37:13;101303.81;;;6.76;100.00
33189;BME280;52601;53.070;10.600;2023-02-18T03:39:59;101302.09;;;6.77;100.00
33189;BME280;52601;53.070;10.600;2023-02-18T03:42:46;101282.97;;;6.78;100.00
33189;BME280;52601;53.070;10.600;2023-02-18T03:45:31;101296.78;;;6.81;100.00
33189;BME280;52601;53.070;10.600;2023-02-18T03:48:17;101293.16;;;6.87;100.00
33189;BME280;52601;53.070;10.600;2023-02-18T03:51:03;101292.38;;;6.83;100.00
33189;BME280;52601;53.070;10.600;2023-02-18T03:53:48;101297.38;;;6.92;100.00
33189;BME280;52601;53.070;10.600;2023-02-18T03:56:35;101288.56;;;6.96;100.00
33189;BME280;52601;53.070;10.600;2023-02-18T03:59:21;101287.66;;;6.99;100.00
33189;BME280;52601;53.070;10.600;2023-02-18T04:02:06;101289.00;;;7.15;99.98
33189;BME280;52601;53.070;10.600;2023-02-18T04:04:52;101296.16;;;7.07;100.00
33189;BME280;52601;53.070;10.600;2023-02-18T04:07:37;101291.13;;;7.00;100.00
33189;BME280;52601;53.070;10.600;2023-02-18T04:10:23;101300.44;;;7.10;100.00
33189;BME280;52601;53.070;10.600;2023-02-18T04:13:08;101303.25;;;7.01;100.00
33189;BME280;52601;53.070;10.600;2023-02-18T04:15:54;101309.13;;;7.09;100.00
33189;BME280;52601;53.070;10.600;2023-02-18T04:18:39;101304.84;;;7.06;100.00
33189;BME280;52601;53.070;10.600;2023-02-18T04:21:25;101303.88;;;7.12;100.00
33189;BME280;52601;53.070;10.600;2023-02-18T04:24:10;101310.72;;;7.14;100.00
33189;BME280;52601;53.070;10.600;2023-02-18T04:26:56;101317.69;;;7.15;99.90
33189;BME280;52601;53.070;10.600;2023-02-18T04:29:41;101313.13;;;7.23;100.00
33189;BME280;52601;53.070;10.600;2023-02-18T04:32:27;101306.28;;;7.19;99.94
33189;BME280;52601;53.070;10.600;2023-02-18T04:35:13;101294.78;;;7.28;100.00
33189;BME280;52601;53.070;10.600;2023-02-18T04:37:59;101296.47;;;7.29;100.00
33189;BME280;52601;53.070;10.600;2023-02-18T04:40:44;101295.66;;;7.27;100.00
33189;BME280;52601;53.070;10.600;2023-02-18T04:43:30;101297.84;;;7.42;100.00
33189;BME280;52601;53.070;10.600;2023-02-18T04:46:15;101289.31;;;7.37;100.00
33189;BME280;52601;53.070;10.600;2023-02-18T04:49:01;101279.06;;;7.29;100.00
33189;BME280;52601;53.070;10.600;2023-02-18T04:51:46;101286.13;;;7.26;100.00
33189;BME280;52601;53.070;10.600;2023-02-18T04:54:32;101287.09;;;7.22;100.00
33189;BME280;52601;53.070;10.600;2023-02-18T04:57:18;101278.63;;;7.12;100.00
33189;BME280;52601;53.070;10.600;2023-02-18T05:00:05;101282.81;;;7.19;100.00
33189;BME280;52601;53.070;10.600;2023-02-18T05:02:51;101280.41;;;7.10;100.00
33189;BME280;52601;53.070;10.600;2023-02-18T05:05:36;101277.81;;;7.10;100.00
33189;BME280;52601;53.070;10.600;2023-02-18T05:08:22;101278.47;;;7.20;100.00
33189;BME280;52601;53.070;10.600;2023-02-18T05:11:08;101273.41;;;7.14;100.00
33189;BME280;52601;53.070;10.600;2023-02-18T05:13:54;101254.13;;;7.19;100.00
33189;BME280;52601;53.070;10.600;2023-02-18T05:16:39;101251.50;;;7.19;100.00
33189;BME280;52601;53.070;10.600;2023-02-18T05:19:25;101253.06;;;7.26;100.00
33189;BME280;52601;53.070;10.600;2023-02-18T05:22:10;101244.41;;;7.24;100.00
33189;BME280;52601;53.070;10.600;2023-02-18T05:24:55;101249.63;;;7.26;100.00
33189;BME280;52601;53.070;10.600;2023-02-18T05:27:41;101248.78;;;7.24;100.00
33189;BME280;52601;53.070;10.600;2023-02-18T05:30:27;101234.94;;;7.22;100.00
33189;BME280;52601;53.070;10.600;2023-02-18T05:33:12;101225.34;;;7.22;100.00
33189;BME280;52601;53.070;10.600;2023-02-18T05:35:58;101237.50;;;7.23;100.00
33189;BME280;52601;53.070;10.600;2023-02-18T05:38:44;101232.34;;;7.20;100.00
33189;BME280;52601;53.070;10.600;2023-02-18T05:41:29;101219.31;;;7.20;100.00
33189;BME280;52601;53.070;10.600;2023-02-18T05:44:15;101218.31;;;7.26;100.00
33189;BME280;52601;53.070;10.600;2023-02-18T05:47:15;101233.59;;;7.39;100.00
33189;BME280;52601;53.070;10.600;2023-02-18T05:50:01;101213.66;;;7.37;100.00
33189;BME280;52601;53.070;10.600;2023-02-18T05:52:46;101209.47;;;7.30;100.00
33189;BME280;52601;53.070;10.600;2023-02-18T05:55:32;101203.94;;;7.42;100.00
33189;BME280;52601;53.070;10.600;2023-02-18T05:58:21;101207.50;;;7.39;100.00
33189;BME280;52601;53.070;10.600;2023-02-18T06:01:07;101212.69;;;7.41;100.00
33189;BME280;52601;53.070;10.600;2023-02-18T06:03:52;101219.75;;;7.36;100.00
33189;BME280;52601;53.070;10.600;2023-02-18T06:06:38;101209.25;;;7.39;100.00
33189;BME280;52601;53.070;10.600;2023-02-18T06:09:24;101204.75;;;7.44;100.00
33189;BME280;52601;53.070;10.600;2023-02-18T06:12:09;101198.88;;;7.37;100.00
33189;BME280;52601;53.070;10.600;2023-02-18T06:14:54;101192.19;;;7.27;100.00
33189;BME280;52601;53.070;10.600;2023-02-18T06:17:40;101187.84;;;7.28;100.00
33189;BME280;52601;53.070;10.600;2023-02-18T06:20:26;101181.81;;;7.26;100.00
33189;BME280;52601;53.070;10.600;2023-02-18T06:23:11;101178.22;;;7.28;100.00
33189;BME280;52601;53.070;10.600;2023-02-18T06:25:57;101172.19;;;7.26;100.00
33189;BME280;52601;53.070;10.600;2023-02-18T06:28:42;101176.66;;;7.23;100.00
33189;BME280;52601;53.070;10.600;2023-02-18T06:31:27;101189.44;;;7.32;100.00
33189;BME280;52601;53.070;10.600;2023-02-18T06:34:13;101172.84;;;7.34;100.00
33189;BME280;52601;53.070;10.600;2023-02-18T06:36:59;101163.66;;;7.21;100.00
33189;BME280;52601;53.070;10.600;2023-02-18T06:39:46;101150.50;;;7.26;100.00
33189;BME280;52601;53.070;10.600;2023-02-18T06:42:31;101140.88;;;7.28;100.00
33189;BME280;52601;53.070;10.600;2023-02-18T06:45:16;101139.69;;;7.39;100.00
33189;BME280;52601;53.070;10.600;2023-02-18T06:48:02;101139.81;;;7.35;100.00
33189;BME280;52601;53.070;10.600;2023-02-18T06:50:48;101136.28;;;7.36;100.00
33189;BME280;52601;53.070;10.600;2023-02-18T06:53:34;101137.41;;;7.27;100.00
33189;BME280;52601;53.070;10.600;2023-02-18T06:56:19;101128.38;;;7.39;100.00
33189;BME280;52601;53.070;10.600;2023-02-18T06:59:04;101118.72;;;7.42;100.00
33189;BME280;52601;53.070;10.600;2023-02-18T07:01:50;101115.41;;;7.36;100.00
33189;BME280;52601;53.070;10.600;2023-02-18T07:04:36;101122.09;;;7.46;100.00
33189;BME280;52601;53.070;10.600;2023-02-18T07:07:21;101119.34;;;7.50;100.00
33189;BME280;52601;53.070;10.600;2023-02-18T07:10:07;101109.03;;;7.46;100.00
33189;BME280;52601;53.070;10.600;2023-02-18T07:12:52;101096.91;;;7.45;100.00
33189;BME280;52601;53.070;10.600;2023-02-18T07:15:38;101095.88;;;7.50;100.00
33189;BME280;52601;53.070;10.600;2023-02-18T07:18:24;101072.50;;;7.46;100.00
33189;BME280;52601;53.070;10.600;2023-02-18T07:21:10;101067.97;;;7.52;100.00
33189;BME280;52601;53.070;10.600;2023-02-18T07:23:55;101067.94;;;7.54;100.00
33189;BME280;52601;53.070;10.600;2023-02-18T07:26:40;101071.72;;;7.44;100.00
33189;BME280;52601;53.070;10.600;2023-02-18T07:29:26;101058.66;;;7.44;100.00
33189;BME280;52601;53.070;10.600;2023-02-18T07:32:12;101047.91;;;7.54;100.00
33189;BME280;52601;53.070;10.600;2023-02-18T07:34:58;101048.84;;;7.53;100.00
33189;BME280;52601;53.070;10.600;2023-02-18T07:37:47;101038.22;;;7.59;100.00
33189;BME280;52601;53.070;10.600;2023-02-18T07:40:33;101024.34;;;7.57;100.00
33189;BME280;52601;53.070;10.600;2023-02-18T07:43:19;101024.91;;;7.67;100.00
33189;BME280;52601;53.070;10.600;2023-02-18T07:46:05;101024.41;;;7.82;100.00
33189;BME280;52601;53.070;10.600;2023-02-18T07:48:51;101012.75;;;7.66;100.00
33189;BME280;52601;53.070;10.600;2023-02-18T07:51:36;101007.16;;;7.78;100.00
33189;BME280;52601;53.070;10.600;2023-02-18T07:54:24;100992.16;;;7.84;100.00
33189;BME280;52601;53.070;10.600;2023-02-18T07:57:10;100989.78;;;7.77;100.00
33189;BME280;52601;53.070;10.600;2023-02-18T07:59:56;100990.59;;;7.79;100.00
33189;BME280;52601;53.070;10.600;2023-02-18T08:02:41;100979.75;;;7.91;100.00
33189;BME280;52601;53.070;10.600;2023-02-18T08:05:27;100990.22;;;7.90;100.00
33189;BME280;52601;53.070;10.600;2023-02-18T08:08:14;100977.22;;;7.88;100.00
33189;BME280;52601;53.070;10.600;2023-02-18T08:11:01;100975.13;;;7.99;100.00
33189;BME280;52601;53.070;10.600;2023-02-18T08:14:02;100956.88;;;7.99;100.00
33189;BME280;52601;53.070;10.600;2023-02-18T08:16:48;100953.19;;;8.05;100.00
33189;BME280;52601;53.070;10.600;2023-02-18T08:19:34;100944.75;;;7.97;100.00
33189;BME280;52601;53.070;10.600;2023-02-18T08:22:19;100938.88;;;7.90;100.00
33189;BME280;52601;53.070;10.600;2023-02-18T08:25:05;100915.66;;;7.82;100.00
33189;BME280;52601;53.070;10.600;2023-02-18T08:27:51;100920.53;;;7.92;100.00
33189;BME280;52601;53.070;10.600;2023-02-18T08:30:36;100903.25;;;7.89;100.00
33189;BME280;52601;53.070;10.600;2023-02-18T08:33:23;100893.59;;;7.91;100.00
33189;BME280;52601;53.070;10.600;2023-02-18T08:36:09;100877.75;;;7.96;100.00
33189;BME280;52601;53.070;10.600;2023-02-18T08:38:56;100872.19;;;8.06;100.00
33189;BME280;52601;53.070;10.600;2023-02-18T08:41:41;100865.34;;;8.02;100.00
33189;BME280;52601;53.070;10.600;2023-02-18T08:44:27;100862.16;;;7.94;100.00
33189;BME280;52601;53.070;10.600;2023-02-18T08:47:12;100863.16;;;7.90;100.00
33189;BME280;52601;53.070;10.600;2023-02-18T08:50:18;100854.31;;;7.94;100.00
33189;BME280;52601;53.070;10.600;2023-02-18T08:53:05;100843.31;;;7.86;100.00
33189;BME280;52601;53.070;10.600;2023-02-18T08:55:50;100855.25;;;7.93;100.00
33189;BME280;52601;53.070;10.600;2023-02-18T08:58:36;100846.28;;;8.00;100.00
33189;BME280;52601;53.070;10.600;2023-02-18T09:01:22;100840.41;;;7.94;100.00
33189;BME280;52601;53.070;10.600;2023-02-18T09:04:07;100839.44;;;7.73;100.00
33189;BME280;52601;53.070;10.600;2023-02-18T09:06:53;100840.47;;;7.92;100.00
33189;BME280;52601;53.070;10.600;2023-02-18T09:09:38;100832.56;;;7.95;100.00
33189;BME280;52601;53.070;10.600;2023-02-18T09:12:23;100828.22;;;7.94;100.00
33189;BME280;52601;53.070;10.600;2023-02-18T09:15:09;100824.88;;;8.14;100.00
33189;BME280;52601;53.070;10.600;2023-02-18T09:17:55;100809.06;;;8.18;100.00
33189;BME280;52601;53.070;10.600;2023-02-18T09:20:41;100794.34;;;8.16;100.00
33189;BME280;52601;53.070;10.600;2023-02-18T09:23:27;100791.22;;;8.06;100.00
33189;BME280;52601;53.070;10.600;2023-02-18T09:26:15;100781.47;;;8.11;100.00
33189;BME280;52601;53.070;10.600;2023-02-18T09:29:01;100785.16;;;8.06;100.00
33189;BME280;52601;53.070;10.600;2023-02-18T09:31:46;100782.59;;;8.04;100.00
33189;BME280;52601;53.070;10.600;2023-02-18T09:34:32;100769.75;;;8.21;100.00
33189;BME280;52601;53.070;10.600;2023-02-18T09:37:18;100762.41;;;8.32;100.00
33189;BME280;52601;53.070;10.600;2023-02-18T09:40:04;100746.00;;;8.29;100.00
33189;BME280;52601;53.070;10.600;2023-02-18T09:42:50;100750.25;;;8.31;100.00
33189;BME280;52601;53.070;10.600;2023-02-18T09:45:36;100751.25;;;8.29;100.00
33189;BME280;52601;53.070;10.600;2023-02-18T09:48:31;100738.59;;;8.40;100.00
33189;BME280;52601;53.070;10.600;2023-02-18T09:51:17;100731.72;;;8.37;100.00
33189;BME280;52601;53.070;10.600;2023-02-18T09:54:03;100730.22;;;8.32;100.00
33189;BME280;52601;53.070;10.600;2023-02-18T09:56:49;100729.44;;;8.51;100.00
33189;BME280;52601;53.070;10.600;2023-02-18T09:59:35;100713.50;;;8.57;100.00
33189;BME280;52601;53.070;10.600;2023-02-18T10:02:22;100713.44;;;8.59;100.00
33189;BME280;52601;53.070;10.600;2023-02-18T10:05:13;100700.19;;;8.63;100.00
33189;BME280;52601;53.070;10.600;2023-02-18T10:08:16;100702.31;;;8.76;100.00
33189;BME280;52601;53.070;10.600;2023-02-18T10:11:04;100702.09;;;9.02;100.00
33189;BME280;52601;53.070;10.600;2023-02-18T10:13:58;100697.31;;;9.11;100.00
33189;BME280;52601;53.070;10.600;2023-02-18T10:16:46;100696.34;;;9.34;100.00
33189;BME280;52601;53.070;10.600;2023-02-18T10:19:36;100695.59;;;9.50;100.00
33189;BME280;52601;53.070;10.600;2023-02-18T10:22:24;100677.22;;;9.71;100.00
33189;BME280;52601;53.070;10.600;2023-02-18T10:25:16;100677.41;;;9.86;100.00
33189;BME280;52601;53.070;10.600;2023-02-18T10:28:03;100660.44;;;10.13;100.00
33189;BME280;52601;53.070;10.600;2023-02-18T10:30:56;100666.69;;;10.09;100.00
33189;BME280;52601;53.070;10.600;2023-02-18T10:33:59;100661.09;;;9.98;100.00
33189;BME280;52601;53.070;10.600;2023-02-18T10:49:48;100626.91;;;10.90;100.00
33189;BME280;52601;53.070;10.600;2023-02-18T10:52:45;100628.00;;;11.03;100.00
33189;BME280;52601;53.070;10.600;2023-02-18T10:55:34;100613.09;;;10.86;100.00
33189;BME280;52601;53.070;10.600;2023-02-18T10:58:32;100622.38;;;10.93;100.00
33189;BME280;52601;53.070;10.600;2023-02-18T11:01:19;100624.38;;;11.05;100.00
33189;BME280;52601;53.070;10.600;2023-02-18T11:04:16;100606.19;;;11.18;100.00
33189;BME280;52601;53.070;10.600;2023-02-18T11:07:04;100613.34;;;10.99;100.00
33189;BME280;52601;53.070;10.600;2023-02-18T11:09:55;100605.41;;;11.33;100.00
33189;BME280;52601;53.070;10.600;2023-02-18T11:12:47;100591.53;;;11.47;100.00
33189;BME280;52601;53.070;10.600;2023-02-18T11:15:34;100594.41;;;11.42;100.00
33189;BME280;52601;53.070;10.600;2023-02-18T11:24:14;100578.34;;;11.79;100.00
33189;BME280;52601;53.070;10.600;2023-02-18T11:27:00;100592.09;;;11.84;100.00
33189;BME280;52601;53.070;10.600;2023-02-18T11:29:49;100573.44;;;11.73;100.00
33189;BME280;52601;53.070;10.600;2023-02-18T11:32:35;100562.66;;;11.62;100.00
33189;BME280;52601;53.070;10.600;2023-02-18T11:35:24;100571.84;;;11.71;100.00
33189;BME280;52601;53.070;10.600;2023-02-18T11:38:23;100567.66;;;11.51;100.00
33189;BME280;52601;53.070;10.600;2023-02-18T11:41:13;100574.34;;;11.41;100.00
33189;BME280;52601;53.070;10.600;2023-02-18T11:43:59;100558.16;;;11.33;100.00
33189;BME280;52601;53.070;10.600;2023-02-18T11:49:57;100554.53;;;11.51;100.00
33189;BME280;52601;53.070;10.600;2023-02-18T11:52:47;100544.03;;;11.51;100.00
33189;BME280;52601;53.070;10.600;2023-02-18T11:55:33;100544.50;;;11.42;100.00
33189;BME280;52601;53.070;10.600;2023-02-18T11:58:18;100548.22;;;11.38;100.00
33189;BME280;52601;53.070;10.600;2023-02-18T12:01:05;100542.47;;;11.32;100.00
33189;BME280;52601;53.070;10.600;2023-02-18T12:04:15;100539.41;;;11.23;100.00
33189;BME280;52601;53.070;10.600;2023-02-18T12:09:54;100536.84;;;11.22;100.00
33189;BME280;52601;53.070;10.600;2023-02-18T12:12:46;100530.75;;;11.21;100.00
33189;BME280;52601;53.070;10.600;2023-02-18T12:16:10;100536.53;;;11.28;100.00
33189;BME280;52601;53.070;10.600;2023-02-18T12:22:41;100534.47;;;11.17;100.00
33189;BME280;52601;53.070;10.600;2023-02-18T12:31:44;100552.16;;;11.14;100.00
33189;BME280;52601;53.070;10.600;2023-02-18T12:34:43;100552.03;;;11.33;100.00
33189;BME280;52601;53.070;10.600;2023-02-18T13:09:03;100558.06;;;11.35;100.00
33189;BME280;52601;53.070;10.600;2023-02-18T13:12:13;100554.81;;;11.29;100.00
33189;BME280;52601;53.070;10.600;2023-02-18T13:15:05;100565.72;;;11.22;100.00
33189;BME280;52601;53.070;10.600;2023-02-18T13:18:00;100568.03;;;11.28;100.00
33189;BME280;52601;53.070;10.600;2023-02-18T13:20:54;100590.78;;;11.27;100.00
33189;BME280;52601;53.070;10.600;2023-02-18T13:23:51;100590.88;;;11.26;100.00
33189;BME280;52601;53.070;10.600;2023-02-18T13:26:38;100587.63;;;11.38;100.00
33189;BME280;52601;53.070;10.600;2023-02-18T13:29:40;100592.19;;;11.35;100.00
33189;BME280;52601;53.070;10.600;2023-02-18T13:32:57;100601.38;;;11.26;100.00
33189;BME280;52601;53.070;10.600;2023-02-18T13:36:09;100596.00;;;11.12;100.00
33189;BME280;52601;53.070;10.600;2023-02-18T13:39:08;100594.16;;;11.14;100.00
33189;BME280;52601;53.070;10.600;2023-02-18T13:42:23;100603.34;;;11.22;100.00
33189;BME280;52601;53.070;10.600;2023-02-18T13:45:31;100607.28;;;11.14;100.00
33189;BME280;52601;53.070;10.600;2023-02-18T13:48:24;100621.16;;;11.16;100.00
33189;BME280;52601;53.070;10.600;2023-02-18T13:51:12;100621.66;;;11.07;100.00
33189;BME280;52601;53.070;10.600;2023-02-18T13:57:21;100635.06;;;11.18;100.00
33189;BME280;52601;53.070;10.600;2023-02-18T14:00:23;100632.47;;;11.34;100.00
33189;BME280;52601;53.070;10.600;2023-02-18T14:06:32;100644.47;;;11.39;100.00
33189;BME280;52601;53.070;10.600;2023-02-18T14:12:24;100649.13;;;11.50;100.00
33189;BME280;52601;53.070;10.600;2023-02-18T14:26:46;100672.88;;;11.31;100.00
33189;BME280;52601;53.070;10.600;2023-02-18T14:29:32;100661.13;;;11.38;100.00
33189;BME280;52601;53.070;10.600;2023-02-18T14:32:19;100683.56;;;11.11;100.00
33189;BME280;52601;53.070;10.600;2023-02-18T14:35:20;100683.22;;;11.34;100.00
33189;BME280;52601;53.070;10.600;2023-02-18T14:38:29;100681.91;;;11.25;100.00
33189;BME280;52601;53.070;10.600;2023-02-18T14:41:50;100689.78;;;11.08;100.00
33189;BME280;52601;53.070;10.600;2023-02-18T14:44:56;100697.88;;;11.04;100.00
33189;BME280;52601;53.070;10.600;2023-02-18T14:48:15;100694.56;;;11.00;100.00
33189;BME280;52601;53.070;10.600;2023-02-18T14:51:03;100712.38;;;10.94;100.00
33189;BME280;52601;53.070;10.600;2023-02-18T14:53:50;100713.94;;;10.98;100.00
33189;BME280;52601;53.070;10.600;2023-02-18T14:56:51;100726.16;;;10.99;100.00
33189;BME280;52601;53.070;10.600;2023-02-18T14:59:40;100727.44;;;10.90;100.00
33189;BME280;52601;53.070;10.600;2023-02-18T15:02:28;100707.63;;;10.85;100.00
33189;BME280;52601;53.070;10.600;2023-02-18T15:05:18;100729.13;;;10.74;100.00
33189;BME280;52601;53.070;10.600;2023-02-18T15:08:13;100736.59;;;10.82;100.00
33189;BME280;52601;53.070;10.600;2023-02-18T15:11:05;100737.53;;;10.81;100.00
33189;BME280;52601;53.070;10.600;2023-02-18T15:13:51;100755.03;;;10.80;100.00
33189;BME280;52601;53.070;10.600;2023-02-18T15:16:38;100763.47;;;10.87;100.00
33189;BME280;52601;53.070;10.600;2023-02-18T15:19:26;100763.78;;;10.98;100.00
33189;BME280;52601;53.070;10.600;2023-02-18T15:22:18;100767.91;;;11.03;100.00
33189;BME280;52601;53.070;10.600;2023-02-18T15:25:04;100766.22;;;10.84;100.00
33189;BME280;52601;53.070;10.600;2023-02-18T15:27:51;100771.34;;;10.87;100.00
33189;BME280;52601;53.070;10.600;2023-02-18T15:30:36;100775.78;;;10.68;100.00
33189;BME280;52601;53.070;10.600;2023-02-18T15:33:23;100788.66;;;10.72;100.00
33189;BME280;52601;53.070;10.600;2023-02-18T15:36:13;100791.19;;;10.74;100.00
33189;BME280;52601;53.070;10.600;2023-02-18T15:38:59;100789.66;;;10.70;100.00
33189;BME280;52601;53.070;10.600;2023-02-18T15:41:45;100808.38;;;10.62;100.00
33189;BME280;52601;53.070;10.600;2023-02-18T15:44:33;100810.66;;;10.51;100.00
33189;BME280;52601;53.070;10.600;2023-02-18T15:47:20;100807.31;;;10.48;100.00
33189;BME280;52601;53.070;10.600;2023-02-18T15:50:25;100814.63;;;10.41;100.00
33189;BME280;52601;53.070;10.600;2023-02-18T15:53:14;100831.09;;;10.24;100.00
33189;BME280;52601;53.070;10.600;2023-02-18T15:56:05;100833.78;;;10.23;100.00
33189;BME280;52601;53.070;10.600;2023-02-18T15:59:06;100818.84;;;10.05;100.00
33189;BME280;52601;53.070;10.600;2023-02-18T16:01:54;100831.31;;;10.20;100.00
33189;BME280;52601;53.070;10.600;2023-02-18T16:04:44;100844.69;;;10.14;100.00
33189;BME280;52601;53.070;10.600;2023-02-18T16:07:36;100847.75;;;10.03;100.00
33189;BME280;52601;53.070;10.600;2023-02-18T16:13:17;100848.66;;;10.02;100.00
33189;BME280;52601;53.070;10.600;2023-02-18T16:16:04;100846.97;;;10.01;100.00
33189;BME280;52601;53.070;10.600;2023-02-18T16:18:50;100849.06;;;9.93;100.00
33189;BME280;52601;53.070;10.600;2023-02-18T16:21:38;100849.91;;;9.94;100.00